createdAt,value
2022-08-08T00:02:04.194Z,44.35
2022-08-08T00:04:49.022Z,44.22
2022-08-08T00:07:28.786Z,44.23
2022-08-08T00:10:10.528Z,44.46
2022-08-08T00:15:57.448Z,44.54
2022-08-08T00:18:27.432Z,44.56
2022-08-08T00:20:58.622Z,45.16
2022-08-08T00:23:43.392Z,44.84
2022-08-08T00:26:30.058Z,44.87
2022-08-08T00:29:11.040Z,44.77
2022-08-08T00:32:29.240Z,45.20
2022-08-08T00:35:18.299Z,45.53
2022-08-08T00:38:02.314Z,45.40
2022-08-08T00:41:11.327Z,45.83
2022-08-08T00:43:46.353Z,45.77
2022-08-08T00:46:55.852Z,45.98
2022-08-08T00:49:39.230Z,46.12
2022-08-08T00:52:34.716Z,46.21
2022-08-08T00:55:35.727Z,46.55
2022-08-08T00:58:54.065Z,46.64
2022-08-08T01:01:38.380Z,46.55
2022-08-08T01:04:42.048Z,46.60
2022-08-08T01:07:54.912Z,46.97
2022-08-08T01:10:45.258Z,47.36
2022-08-08T01:13:52.797Z,47.59
2022-08-08T01:16:37.183Z,48.15
2022-08-08T01:19:52.005Z,47.96
2022-08-08T01:22:34.875Z,48.08
2022-08-08T01:25:40.688Z,48.30
2022-08-08T01:28:34.377Z,49.02
2022-08-08T01:32:06.850Z,49.09
2022-08-08T01:35:11.436Z,49.01
2022-08-08T01:38:07.316Z,48.82
2022-08-08T01:40:54.212Z,49.39
2022-08-08T01:43:42.909Z,49.39
2022-08-08T01:46:27.847Z,49.58
2022-08-08T01:49:22.950Z,49.60
2022-08-08T01:52:44.251Z,49.72
2022-08-08T01:55:44.953Z,50.00
2022-08-08T01:58:10.728Z,50.25
2022-08-08T02:00:57.340Z,49.89
2022-08-08T02:03:55.404Z,50.19
2022-08-08T02:06:32.391Z,50.46
2022-08-08T02:10:01.273Z,50.57
2022-08-08T02:12:37.164Z,50.65
2022-08-08T02:15:34.743Z,51.13
2022-08-08T02:18:21.240Z,51.53
2022-08-08T02:21:18.058Z,51.51
2022-08-08T02:23:57.912Z,51.12
2022-08-08T02:26:43.437Z,51.19
2022-08-08T02:29:20.833Z,51.64
2022-08-08T02:32:40.457Z,51.36
2022-08-08T02:36:04.547Z,51.54
2022-08-08T02:39:01.614Z,52.19
2022-08-08T02:42:38.485Z,52.37
2022-08-08T02:45:23.447Z,51.95
2022-08-08T02:48:15.957Z,52.34
2022-08-08T02:51:02.875Z,51.91
2022-08-08T02:53:53.507Z,52.23
2022-08-08T02:56:35.354Z,52.44
2022-08-08T02:59:25.798Z,52.25
2022-08-08T03:02:30.368Z,53.15
2022-08-08T03:05:45.259Z,53.67
2022-08-08T03:08:27.928Z,53.28
2022-08-08T03:12:01.912Z,53.34
2022-08-08T03:15:58.740Z,53.31
2022-08-08T03:17:41.406Z,53.59
2022-08-08T03:20:10.608Z,53.41
2022-08-08T03:22:57.039Z,53.90
2022-08-08T03:25:35.827Z,53.41
2022-08-08T03:28:07.727Z,53.57
2022-08-08T03:30:34.693Z,53.49
2022-08-08T03:33:54.826Z,53.52
2022-08-08T03:36:16.057Z,53.98
2022-08-08T03:38:56.482Z,54.53
2022-08-08T03:42:04.160Z,54.67
2022-08-08T03:44:20.514Z,55.03
2022-08-08T03:46:52.217Z,55.01
2022-08-08T03:49:57.850Z,55.16
2022-08-08T03:52:13.250Z,55.66
2022-08-08T03:55:02.000Z,55.66
2022-08-08T03:58:30.600Z,55.70
2022-08-08T04:00:19.675Z,55.89
2022-08-08T04:03:11.759Z,55.95
2022-08-08T04:05:39.803Z,56.10
2022-08-08T04:08:32.946Z,56.50
2022-08-08T04:11:10.933Z,55.79
2022-08-08T04:14:03.190Z,55.72
2022-08-08T04:16:40.236Z,55.72
2022-08-08T04:19:23.347Z,56.04
2022-08-08T04:21:50.954Z,56.60
2022-08-08T04:24:28.223Z,56.93
2022-08-08T04:26:58.011Z,57.52
2022-08-08T04:29:25.545Z,57.64
2022-08-08T04:31:58.353Z,57.69
2022-08-08T04:34:28.070Z,57.64
2022-08-08T04:36:59.131Z,57.76
2022-08-08T04:40:04.198Z,58.03
2022-08-08T04:42:15.618Z,58.16
2022-08-08T04:44:42.583Z,58.27
2022-08-08T04:47:14.783Z,58.32
2022-08-08T04:50:00.949Z,59.10
2022-08-08T04:52:33.918Z,59.00
2022-08-08T04:55:01.871Z,59.09
2022-08-08T04:57:28.721Z,59.41
2022-08-08T04:59:55.472Z,59.42
2022-08-08T05:02:28.621Z,59.61
2022-08-08T05:04:59.361Z,60.46
2022-08-08T05:07:26.974Z,60.81
2022-08-08T05:10:05.323Z,61.07
2022-08-08T05:12:36.759Z,61.13
2022-08-08T05:15:04.499Z,61.42
2022-08-08T05:17:53.806Z,62.27
2022-08-08T05:20:18.269Z,62.15
2022-08-08T05:22:44.763Z,61.95
2022-08-08T05:25:11.234Z,62.42
2022-08-08T05:27:41.628Z,62.53
2022-08-08T05:30:11.245Z,62.44
2022-08-08T05:32:39.231Z,62.79
2022-08-08T05:35:07.222Z,62.80
2022-08-08T05:37:51.794Z,63.34
2022-08-08T05:40:27.670Z,62.65
2022-08-08T05:43:38.379Z,62.19
2022-08-08T05:46:11.449Z,61.89
2022-08-08T05:48:38.788Z,61.75
2022-08-08T05:51:14.772Z,62.36
2022-08-08T05:54:26.106Z,62.42
2022-08-08T05:56:36.868Z,62.46
2022-08-08T05:59:12.497Z,62.65
2022-08-08T06:01:56.798Z,62.50
2022-08-08T06:04:26.595Z,62.35
2022-08-08T06:07:01.619Z,62.12
2022-08-08T06:10:00.215Z,61.78
2022-08-08T06:12:30.421Z,61.98
2022-08-08T06:15:03.141Z,61.83
2022-08-08T06:18:18.775Z,61.65
2022-08-08T06:20:20.921Z,61.74
2022-08-08T06:22:49.290Z,61.53
2022-08-08T06:25:17.955Z,61.22
2022-08-08T06:27:58.362Z,60.90
2022-08-08T06:30:28.211Z,60.86
2022-08-08T06:32:58.238Z,60.57
2022-08-08T06:36:06.220Z,60.48
2022-08-08T06:38:25.067Z,60.47
2022-08-08T06:41:04.810Z,60.27
2022-08-08T06:43:36.700Z,59.92
2022-08-08T06:46:04.827Z,59.76
2022-08-08T06:48:36.270Z,59.33
2022-08-08T06:51:08.472Z,58.64
2022-08-08T06:53:39.922Z,58.51
2022-08-08T06:56:09.158Z,57.82
2022-08-08T06:58:37.051Z,57.10
2022-08-08T07:01:52.624Z,56.28
2022-08-08T07:04:38.732Z,55.10
2022-08-08T07:07:10.621Z,55.49
2022-08-08T07:10:00.370Z,55.40
2022-08-08T07:12:43.875Z,54.53
2022-08-08T07:15:32.595Z,54.43
2022-08-08T07:18:36.725Z,53.99
2022-08-08T07:21:02.109Z,53.62
2022-08-08T07:24:01.005Z,52.26
2022-08-08T07:26:35.993Z,52.25
2022-08-08T07:29:05.742Z,52.58
2022-08-08T07:31:35.889Z,52.36
2022-08-08T07:34:08.978Z,52.22
2022-08-08T07:36:41.903Z,52.09
2022-08-08T07:39:18.232Z,51.93
2022-08-08T07:42:04.411Z,51.99
2022-08-08T07:45:02.515Z,52.22
2022-08-08T07:47:39.159Z,51.10
2022-08-08T07:50:06.751Z,51.31
2022-08-08T07:52:35.843Z,51.50
2022-08-08T07:55:17.203Z,50.94
2022-08-08T07:58:05.290Z,50.40
2022-08-08T08:00:52.869Z,49.64
2022-08-08T08:03:43.314Z,48.70
2022-08-08T08:06:12.490Z,48.70
2022-08-08T08:08:52.188Z,48.72
2022-08-08T08:11:21.481Z,48.15
2022-08-08T08:14:09.732Z,48.23
2022-08-08T08:16:41.086Z,48.01
2022-08-08T08:19:15.031Z,48.25
2022-08-08T08:21:53.372Z,48.08
2022-08-08T08:24:30.694Z,47.37
2022-08-08T08:26:58.456Z,47.33
2022-08-08T08:29:27.709Z,47.16
2022-08-08T08:31:57.884Z,47.15
2022-08-08T08:34:32.804Z,46.77
2022-08-08T08:37:08.109Z,45.61
2022-08-08T08:39:59.690Z,46.37
2022-08-08T08:42:35.104Z,46.58
2022-08-08T08:45:20.813Z,45.77
2022-08-08T08:47:53.196Z,45.93
2022-08-08T08:50:33.718Z,45.14
2022-08-08T08:53:27.170Z,44.87
2022-08-08T08:55:54.083Z,44.49
2022-08-08T08:58:30.313Z,44.30
2022-08-08T09:01:09.070Z,43.63
2022-08-08T09:03:45.886Z,43.53
2022-08-08T09:06:28.485Z,43.27
2022-08-08T09:09:37.520Z,43.93
2022-08-08T09:12:08.002Z,42.81
2022-08-08T09:14:35.576Z,42.69
2022-08-08T09:17:14.262Z,42.55
2022-08-08T09:22:01.960Z,41.71
2022-08-08T09:22:31.739Z,42.29
2022-08-08T09:24:58.632Z,42.11
2022-08-08T09:27:41.884Z,41.91
2022-08-08T09:30:17.725Z,41.61
2022-08-08T09:34:14.817Z,40.67
2022-08-08T09:36:39.357Z,39.91
2022-08-08T09:39:15.626Z,40.31
2022-08-08T09:42:20.001Z,40.31
2022-08-08T09:45:15.726Z,39.54
2022-08-08T09:48:04.129Z,39.23
2022-08-08T09:50:43.992Z,39.32
2022-08-08T09:53:24.864Z,39.24
2022-08-08T09:56:11.663Z,38.39
2022-08-08T09:58:45.283Z,38.25
2022-08-08T10:01:59.214Z,38.56
2022-08-08T10:04:14.266Z,37.93
2022-08-08T10:06:45.134Z,38.39
2022-08-08T10:09:13.454Z,37.78
2022-08-08T10:12:27.746Z,37.50
2022-08-08T10:14:39.194Z,37.53
2022-08-08T10:17:56.671Z,37.40
2022-08-08T10:20:00.183Z,36.36
2022-08-08T10:22:32.304Z,36.12
2022-08-08T10:25:05.809Z,36.87
2022-08-08T10:27:43.285Z,37.42
2022-08-08T10:30:16.722Z,36.97
2022-08-08T10:33:00.342Z,35.75
2022-08-08T10:36:07.314Z,36.05
2022-08-08T10:38:19.571Z,35.88
2022-08-08T10:40:51.146Z,35.83
2022-08-08T10:43:18.601Z,35.59
2022-08-08T10:45:55.871Z,35.83
2022-08-08T10:48:37.379Z,34.83
2022-08-08T10:51:20.138Z,35.18
2022-08-08T10:53:56.607Z,35.17
2022-08-08T10:56:27.909Z,35.00
2022-08-08T10:59:09.565Z,35.13
2022-08-08T11:01:41.808Z,35.02
2022-08-08T11:04:10.538Z,34.74
2022-08-08T11:06:41.321Z,33.65
2022-08-08T11:09:19.330Z,34.54
2022-08-08T11:12:06.158Z,33.50
2022-08-08T11:14:33.676Z,33.71
2022-08-08T11:17:02.982Z,33.15
2022-08-08T11:19:33.556Z,32.97
2022-08-08T11:22:01.305Z,32.75
2022-08-08T11:24:34.077Z,32.05
2022-08-08T11:27:10.561Z,31.14
2022-08-08T11:30:04.222Z,31.36
2022-08-08T11:32:40.883Z,30.73
2022-08-08T11:35:27.554Z,32.20
2022-08-08T11:38:36.446Z,32.21
2022-08-08T11:40:52.387Z,32.17
2022-08-08T11:43:20.223Z,32.29
2022-08-08T11:46:09.727Z,33.32
2022-08-08T11:48:38.487Z,32.70
2022-08-08T11:51:30.215Z,32.82
2022-08-08T11:53:55.196Z,33.38
2022-08-08T11:56:25.807Z,33.37
2022-08-08T11:58:54.181Z,33.45
2022-08-08T12:01:31.854Z,32.14
2022-08-08T12:04:04.005Z,31.47
2022-08-08T12:06:32.658Z,31.18
2022-08-08T12:09:09.716Z,32.14
2022-08-08T12:11:46.169Z,31.42
2022-08-08T12:14:29.016Z,31.57
2022-08-08T12:16:57.031Z,31.80
2022-08-08T12:19:37.540Z,30.93
2022-08-08T12:22:13.868Z,30.53
2022-08-08T12:24:53.935Z,30.60
2022-08-08T12:27:26.362Z,29.61
2022-08-08T12:29:56.363Z,30.08
2022-08-08T12:32:23.244Z,31.08
2022-08-08T12:35:04.578Z,30.26
2022-08-08T12:38:01.257Z,30.12
2022-08-08T12:40:56.891Z,31.28
2022-08-08T12:43:43.342Z,30.30
2022-08-08T12:46:19.049Z,30.95
2022-08-08T12:49:25.079Z,30.87
2022-08-08T12:51:58.417Z,30.62
2022-08-08T12:54:37.957Z,30.54
2022-08-08T12:57:17.160Z,30.00
2022-08-08T13:00:03.313Z,30.25
2022-08-08T13:02:36.000Z,28.35
2022-08-08T13:05:26.843Z,28.40
2022-08-08T13:08:18.482Z,29.51
2022-08-08T13:10:56.173Z,28.58
2022-08-08T13:13:35.522Z,28.50
2022-08-08T13:16:25.732Z,28.73
2022-08-08T13:19:00.436Z,28.52
2022-08-08T13:21:48.890Z,28.74
2022-08-08T13:24:18.817Z,28.10
2022-08-08T13:27:05.105Z,28.20
2022-08-08T13:29:47.221Z,27.74
2022-08-08T13:32:13.742Z,28.32
2022-08-08T13:34:41.861Z,27.69
2022-08-08T13:37:10.927Z,28.85
2022-08-08T13:39:51.095Z,28.33
2022-08-08T13:42:18.343Z,27.85
2022-08-08T13:44:53.708Z,27.82
2022-08-08T13:47:20.161Z,27.71
2022-08-08T13:50:35.589Z,27.73
2022-08-08T13:52:48.617Z,26.12
2022-08-08T13:55:28.070Z,26.79
2022-08-08T13:58:08.241Z,27.27
2022-08-08T14:00:40.648Z,27.15
2022-08-08T14:03:53.648Z,27.08
2022-08-08T14:06:32.101Z,26.06
2022-08-08T14:08:57.948Z,26.14
2022-08-08T14:11:27.962Z,26.51
2022-08-08T14:13:59.470Z,25.69
2022-08-08T14:16:27.674Z,26.73
2022-08-08T14:18:58.729Z,25.24
2022-08-08T14:21:49.037Z,25.69
2022-08-08T14:24:33.512Z,25.42
2022-08-08T14:27:01.646Z,25.90
2022-08-08T14:29:39.168Z,25.72
2022-08-08T14:32:14.142Z,26.08
2022-08-08T14:34:50.297Z,25.21
2022-08-08T14:37:18.105Z,25.57
2022-08-08T14:40:06.505Z,25.67
2022-08-08T14:42:55.073Z,25.75
2022-08-08T14:45:33.496Z,25.19
2022-08-08T14:48:16.524Z,24.66
2022-08-08T14:51:04.424Z,24.17
2022-08-08T14:53:54.908Z,24.13
2022-08-08T14:56:24.869Z,24.38
2022-08-08T14:58:51.768Z,24.92
2022-08-08T15:01:23.798Z,24.50
2022-08-08T15:03:53.605Z,25.45
2022-08-08T15:06:35.022Z,25.67
2022-08-08T15:09:04.190Z,25.61
2022-08-08T15:11:39.400Z,25.52
2022-08-08T15:14:14.327Z,25.06
2022-08-08T15:16:42.584Z,25.38
2022-08-08T15:19:10.686Z,25.90
2022-08-08T15:21:37.878Z,26.59
2022-08-08T15:24:13.668Z,27.95
2022-08-08T15:26:41.540Z,27.09
2022-08-08T15:29:08.117Z,27.61
2022-08-08T15:32:17.391Z,27.79
2022-08-08T15:34:47.619Z,27.45
2022-08-08T15:37:14.043Z,28.06
2022-08-08T15:39:40.554Z,27.93
2022-08-08T15:42:10.243Z,27.53
2022-08-08T15:44:37.649Z,27.24
2022-08-08T15:47:07.127Z,27.23
2022-08-08T15:49:43.830Z,27.33
2022-08-08T15:52:13.375Z,26.83
2022-08-08T15:54:47.823Z,27.14
2022-08-08T15:57:15.540Z,27.86
2022-08-08T16:00:25.232Z,27.58
2022-08-08T16:02:31.015Z,27.30
2022-08-08T16:05:01.498Z,26.57
2022-08-08T16:07:51.933Z,27.78
2022-08-08T16:13:11.081Z,27.43
2022-08-08T16:13:34.352Z,27.38
2022-08-08T16:15:58.207Z,26.87
2022-08-08T16:18:35.824Z,27.06
2022-08-08T16:21:02.432Z,26.61
2022-08-08T16:23:31.727Z,27.18
2022-08-08T16:26:04.059Z,26.66
2022-08-08T16:28:35.969Z,27.13
2022-08-08T16:31:07.752Z,27.49
2022-08-08T16:33:38.616Z,27.82
2022-08-08T16:36:09.782Z,27.82
2022-08-08T16:38:47.441Z,28.26
2022-08-08T16:41:22.433Z,28.31
2022-08-08T16:43:50.888Z,28.40
2022-08-08T16:46:36.542Z,28.48
2022-08-08T16:49:05.938Z,28.68
2022-08-08T16:55:02.366Z,28.80
2022-08-08T16:55:18.132Z,28.43
2022-08-08T16:58:13.383Z,29.83
2022-08-08T16:59:57.963Z,29.89
2022-08-08T17:02:41.879Z,29.75
2022-08-08T17:05:12.867Z,29.43
2022-08-08T17:07:40.529Z,30.14
2022-08-08T17:10:08.914Z,30.62
2022-08-08T17:12:36.769Z,31.02
2022-08-08T17:15:17.634Z,31.29
2022-08-08T17:18:02.541Z,31.22
2022-08-08T17:20:30.937Z,31.02
2022-08-08T17:23:16.568Z,31.28
2022-08-08T17:25:52.241Z,31.72
2022-08-08T17:47:09.434Z,32.49
2022-08-08T17:49:43.474Z,32.12
2022-08-08T17:52:23.051Z,31.97
2022-08-08T17:54:56.191Z,32.74
2022-08-08T18:06:43.041Z,33.51
2022-08-08T18:09:14.673Z,34.06
2022-08-08T18:11:43.974Z,33.97
2022-08-08T18:14:21.687Z,34.26
2022-08-08T18:16:54.441Z,34.14
2022-08-08T18:19:25.274Z,34.38
2022-08-08T18:22:01.633Z,34.03
2022-08-08T18:24:30.199Z,34.53
2022-08-08T18:26:58.969Z,34.51
2022-08-08T18:29:36.012Z,34.46
2022-08-08T18:32:05.414Z,34.83
2022-08-08T18:34:36.162Z,34.91
2022-08-08T18:37:08.057Z,34.61
2022-08-08T18:39:37.212Z,34.59
2022-08-08T18:42:09.129Z,35.19
2022-08-08T18:44:41.661Z,35.21
2022-08-08T18:47:08.069Z,34.94
2022-08-08T18:49:41.089Z,34.45
2022-08-08T18:52:22.285Z,34.69
2022-08-08T18:55:00.779Z,34.51
2022-08-08T18:57:41.176Z,34.94
2022-08-08T19:00:15.783Z,35.43
2022-08-08T19:02:55.272Z,35.49
2022-08-08T19:05:32.070Z,35.85
2022-08-08T19:08:07.850Z,35.85
2022-08-08T19:10:34.537Z,35.29
2022-08-08T19:13:01.620Z,35.64
2022-08-08T19:15:33.902Z,35.90
2022-08-08T19:18:33.276Z,35.61
2022-08-08T19:20:57.449Z,36.16
2022-08-08T19:23:23.889Z,35.93
2022-08-08T19:26:20.019Z,36.13
2022-08-08T19:28:39.245Z,36.53
2022-08-08T19:31:09.372Z,35.89
2022-08-08T19:33:51.737Z,36.61
2022-08-08T19:36:27.374Z,36.45
2022-08-08T19:38:54.349Z,36.32
2022-08-08T19:41:21.489Z,36.44
2022-08-08T19:44:02.366Z,36.68
2022-08-08T19:46:33.232Z,36.80
2022-08-08T19:49:00.648Z,36.95
2022-08-08T19:51:34.142Z,37.00
2022-08-08T19:54:01.737Z,36.67
2022-08-08T19:56:40.033Z,37.13
2022-08-08T19:59:11.799Z,36.80
2022-08-08T20:02:01.335Z,36.72
2022-08-08T20:04:27.774Z,36.61
2022-08-08T20:06:56.939Z,37.01
2022-08-08T20:09:24.721Z,37.15
2022-08-08T20:11:52.122Z,37.68
2022-08-08T20:14:34.602Z,37.53
2022-08-08T20:17:02.551Z,37.86
2022-08-08T20:19:33.465Z,38.01
2022-08-08T20:22:20.926Z,38.59
2022-08-08T20:25:01.501Z,38.81
2022-08-08T20:27:43.592Z,38.94
2022-08-08T20:30:52.863Z,38.76
2022-08-08T20:33:01.724Z,38.91
2022-08-08T20:35:32.889Z,39.28
2022-08-08T20:38:15.095Z,39.78
2022-08-08T20:40:47.380Z,40.08
2022-08-08T20:43:42.917Z,39.89
2022-08-08T20:46:04.145Z,39.48
2022-08-08T20:56:07.268Z,40.39
2022-08-08T20:59:00.551Z,41.33
2022-08-08T21:02:05.348Z,41.37
2022-08-08T21:08:00.844Z,41.64
2022-08-08T21:10:22.182Z,41.82
2022-08-08T21:12:55.111Z,41.69
2022-08-08T21:16:06.370Z,42.10
2022-08-08T21:18:10.250Z,41.89
2022-08-08T21:20:38.406Z,42.17
2022-08-08T21:23:09.142Z,42.67
2022-08-08T21:25:36.711Z,42.79
2022-08-08T21:28:09.249Z,43.69
2022-08-08T21:30:42.517Z,43.59
2022-08-08T21:33:12.010Z,43.39
2022-08-08T21:36:16.190Z,43.30
2022-08-08T21:38:25.914Z,43.28
2022-08-08T21:40:55.844Z,43.54
2022-08-08T21:43:33.350Z,44.42
2022-08-08T21:48:04.361Z,44.15
2022-08-08T21:48:52.706Z,44.68
2022-08-08T21:54:22.739Z,44.82
2022-08-08T21:54:31.997Z,44.93
2022-08-08T21:56:56.242Z,45.20
2022-08-08T21:59:22.879Z,45.09
2022-08-08T22:01:52.504Z,45.52
2022-08-08T22:04:25.391Z,45.80
2022-08-08T22:12:51.151Z,46.19
2022-08-08T22:15:18.528Z,46.22
2022-08-08T22:17:45.957Z,45.87
2022-08-08T22:20:18.872Z,46.21
2022-08-08T22:22:51.025Z,46.06
2022-08-08T22:25:25.207Z,46.52
2022-08-08T22:28:03.512Z,46.48
2022-08-08T22:30:42.391Z,47.04
2022-08-08T22:33:22.234Z,47.19
2022-08-08T22:36:04.327Z,47.08
2022-08-08T22:38:39.274Z,46.70
2022-08-08T22:41:15.994Z,47.12
2022-08-08T22:44:02.972Z,46.92
2022-08-08T22:46:34.202Z,47.14
2022-08-08T22:49:01.801Z,46.41
2022-08-08T22:51:29.454Z,47.12
2022-08-08T22:54:33.849Z,47.06
2022-08-08T22:56:47.884Z,47.41
2022-08-08T22:59:18.511Z,47.35
2022-08-08T23:02:02.443Z,47.57
2022-08-08T23:04:32.059Z,47.40
2022-08-08T23:07:02.833Z,48.06
2022-08-08T23:09:30.523Z,48.16
2022-08-08T23:12:27.458Z,48.06
2022-08-08T23:14:56.166Z,48.28
2022-08-08T23:17:29.926Z,48.01
2022-08-08T23:19:56.617Z,48.34
2022-08-08T23:22:22.995Z,48.15
2022-08-08T23:24:50.787Z,48.69
2022-08-08T23:27:37.684Z,48.41
2022-08-08T23:30:05.541Z,48.73
2022-08-08T23:32:35.822Z,48.68
2022-08-08T23:35:16.967Z,49.42
2022-08-08T23:38:02.222Z,49.20
2022-08-08T23:40:29.717Z,49.30
2022-08-08T23:42:56.787Z,49.08
2022-08-08T23:49:01.799Z,49.70
2022-08-08T23:49:06.340Z,49.53
2022-08-08T23:50:57.009Z,49.93
2022-08-08T23:54:06.455Z,49.99
2022-08-08T23:56:10.377Z,49.96
2022-08-08T23:58:38.951Z,50.36
